Time;durP1;ratioP1;P1;durP2;ratioP2;P2;SDS_P1;SDS_P2;PMS_P1;PMS_P2;Temp;Humidity;BMP_temperature;BMP_pressure;BME280_temperature;BME280_humidity;BME280_pressure;Samples;Min_cycle;Max_cycle;Signal;HPM_P1;HPM_P2
2021/12/26 00:01:04;;;;;;;;;17.00;15.00;;;;;13.29;68.63;99818.09;2061392;27;47764;-64
2021/12/26 00:02:05;;;;;;;;;22.20;19.20;;;;;13.29;68.52;99818.97;2058523;28;46851;-65
2021/12/26 00:03:05;;;;;;;;;16.00;15.33;;;;;13.30;68.59;99819.84;2088375;28;47235;-64
2021/12/26 00:04:06;;;;;;;;;19.25;17.75;;;;;13.30;68.34;99822.50;2083414;28;48226;-66
2021/12/26 00:05:08;;;;;;;;;19.00;18.00;;;;;13.29;68.50;99812.78;2087518;27;47961;-65
2021/12/26 00:06:12;;;;;;;;;20.60;20.60;;;;;13.28;68.35;99814.59;2049166;28;48815;-63
2021/12/26 00:07:13;;;;;;;;;18.75;18.75;;;;;13.28;68.30;99809.25;2062408;28;47944;-65
2021/12/26 00:08:13;;;;;;;;;16.75;16.50;;;;;13.29;68.13;99812.78;2055583;27;48302;-65
2021/12/26 00:09:14;;;;;;;;;22.50;21.25;;;;;13.28;68.22;99811.06;2089661;28;46890;-63
2021/12/26 00:10:17;;;;;;;;;19.25;17.50;;;;;13.27;68.07;99807.53;2076052;27;47429;-66
2021/12/26 00:11:18;;;;;;;;;20.60;18.60;;;;;13.27;68.60;99807.53;2054973;28;48256;-63
2021/12/26 00:12:20;;;;;;;;;22.00;19.60;;;;;13.27;68.21;99818.19;2079462;28;47437;-65
2021/12/26 00:13:21;;;;;;;;;23.00;20.40;;;;;13.28;68.53;99814.59;2056576;28;46286;-65
2021/12/26 00:14:21;;;;;;;;;28.50;23.00;;;;;13.28;68.30;99808.38;2054682;28;48081;-65
2021/12/26 00:15:23;;;;;;;;;20.00;18.75;;;;;13.28;68.46;99816.38;2054528;28;48329;-65
2021/12/26 00:16:24;;;;;;;;;26.60;23.00;;;;;13.29;68.51;99804.78;2055135;28;48490;-64
2021/12/26 00:17:24;;;;;;;;;21.40;21.20;;;;;13.29;68.49;99807.44;2048607;28;47493;-66
2021/12/26 00:18:26;;;;;;;;;23.00;21.00;;;;;13.30;68.45;99806.50;2054394;28;47542;-64
2021/12/26 00:19:26;;;;;;;;;21.00;19.20;;;;;13.30;68.54;99803.84;2054413;28;47126;-64
2021/12/26 00:20:28;;;;;;;;;25.00;21.50;;;;;13.31;68.49;99805.56;2053243;28;48274;-66
2021/12/26 00:21:28;;;;;;;;;25.20;22.00;;;;;13.30;68.36;99810.03;2054907;28;47352;-65
2021/12/26 00:22:29;;;;;;;;;23.75;21.25;;;;;13.31;68.40;99805.56;2052630;28;48494;-66
2021/12/26 00:23:31;;;;;;;;;22.20;21.20;;;;;13.31;68.67;99803.78;2052029;28;47393;-66
2021/12/26 00:24:32;;;;;;;;;24.00;21.60;;;;;13.31;68.41;99814.44;2054254;28;46941;-64
2021/12/26 00:25:33;;;;;;;;;22.25;21.00;;;;;13.32;68.41;99808.16;2053722;28;48348;-63
2021/12/26 00:26:35;;;;;;;;;22.80;19.60;;;;;13.31;68.30;99808.25;2051450;28;47985;-63
2021/12/26 00:27:36;;;;;;;;;24.80;22.60;;;;;13.31;68.50;99802.91;2050107;28;46299;-64
2021/12/26 00:28:36;;;;;;;;;24.00;24.00;;;;;13.32;68.47;99799.31;2055181;28;48047;-64
2021/12/26 00:29:37;;;;;;;;;24.00;24.00;;;;;13.32;68.66;99802.84;2053655;27;47222;-64
2021/12/26 00:30:38;;;;;;;;;28.75;24.75;;;;;13.33;68.50;99806.34;2050962;28;48103;-64
2021/12/26 00:31:38;;;;;;;;;26.20;22.80;;;;;13.32;68.20;99802.84;2050713;28;48274;-63
2021/12/26 00:32:40;;;;;;;;;26.25;24.00;;;;;13.33;68.38;99804.56;2058082;28;48267;-64
2021/12/26 00:33:40;;;;;;;;;24.60;24.00;;;;;13.33;68.06;99803.69;2062252;27;48675;-65
2021/12/26 00:34:41;;;;;;;;;28.75;27.50;;;;;13.33;68.42;99801.91;2054486;28;48121;-65
2021/12/26 00:35:42;;;;;;;;;24.00;22.60;;;;;13.33;68.23;99801.03;2053329;28;47319;-66
2021/12/26 00:36:43;;;;;;;;;30.00;27.00;;;;;13.33;68.47;99798.38;2050033;28;48221;-64
2021/12/26 00:37:44;;;;;;;;;27.25;24.50;;;;;13.33;68.50;99799.22;2050757;28;47234;-64
2021/12/26 00:38:45;;;;;;;;;28.40;26.40;;;;;13.33;68.56;99804.56;2055254;28;45442;-64
2021/12/26 00:39:46;;;;;;;;;25.80;24.00;;;;;13.34;68.55;99800.09;2054501;28;47292;-64
2021/12/26 00:40:48;;;;;;;;;24.00;23.60;;;;;13.33;68.60;99801.03;2053065;28;47807;-65
2021/12/26 00:41:49;;;;;;;;;27.80;24.20;;;;;13.33;68.39;99801.91;2052229;28;48324;-66
2021/12/26 00:42:50;;;;;;;;;27.25;25.75;;;;;13.34;68.58;99797.44;2050327;28;47557;-66
2021/12/26 00:43:52;;;;;;;;;22.40;22.20;;;;;13.33;68.49;99798.38;2053547;28;48290;-64
2021/12/26 00:44:53;;;;;;;;;28.40;22.60;;;;;13.35;68.56;99796.53;2055034;28;48669;-65
2021/12/26 00:45:54;;;;;;;;;28.00;26.25;;;;;13.35;68.66;99791.19;2051972;28;46791;-65
2021/12/26 00:46:55;;;;;;;;;30.00;25.40;;;;;13.34;68.45;99785.00;2048355;28;47405;-64
2021/12/26 00:47:55;;;;;;;;;29.50;26.00;;;;;13.34;68.37;99786.75;2048562;28;48127;-68
2021/12/26 00:48:56;;;;;;;;;28.25;24.00;;;;;13.35;68.56;99785.84;2054243;28;47299;-67
2021/12/26 00:49:57;;;;;;;;;20.50;20.25;;;;;13.35;68.47;99786.72;2054188;28;47068;-67
2021/12/26 00:50:58;;;;;;;;;27.00;25.00;;;;;13.35;68.65;99785.84;2054146;28;47283;-64
2021/12/26 00:51:58;;;;;;;;;32.00;30.00;;;;;13.36;68.69;99785.78;2048065;28;47395;-65
2021/12/26 00:52:59;;;;;;;;;27.50;27.00;;;;;13.36;68.54;99780.44;2052724;28;48053;-68
2021/12/26 00:54:00;;;;;;;;;26.00;24.40;;;;;13.37;68.33;99781.31;2054670;28;47389;-64
2021/12/26 00:55:01;;;;;;;;;27.50;25.75;;;;;13.37;68.58;99781.31;2054504;28;47277;-65
2021/12/26 00:56:02;;;;;;;;;25.00;24.00;;;;;13.37;68.23;99787.50;2045582;28;47516;-64
2021/12/26 00:57:04;;;;;;;;;30.80;28.20;;;;;13.37;68.54;99776.84;2046291;28;47027;-64
2021/12/26 00:58:09;;;;;;;;;27.40;27.40;;;;;13.36;68.43;99783.13;2061822;27;47557;-63
2021/12/26 00:59:10;;;;;;;;;25.00;23.20;;;;;13.37;68.51;99784.84;2054824;27;48810;-64
2021/12/26 01:00:16;;;;;;;;;19.00;18.00;;;;;13.37;68.53;99782.19;2054343;28;47257;-65
2021/12/26 01:01:18;;;;;;;;;29.00;26.40;;;;;13.36;68.73;99785.78;2061951;27;47145;-63
2021/12/26 01:02:18;;;;;;;;;28.20;23.40;;;;;13.36;68.36;99791.13;2062144;27;47243;-64
2021/12/26 01:03:20;;;;;;;;;29.25;24.50;;;;;13.37;68.43;99797.31;2054572;28;47869;-63
2021/12/26 01:04:22;;;;;;;;;27.00;26.80;;;;;13.37;68.62;99798.16;2054791;28;47027;-65
2021/12/26 01:05:24;;;;;;;;;25.40;24.80;;;;;13.37;68.36;99786.66;2054358;28;46248;-68
2021/12/26 01:06:27;;;;;;;;;28.40;26.60;;;;;13.37;68.53;99789.31;2054453;28;47650;-64
2021/12/26 01:08:41;;;;;;;;;28.00;26.20;;;;;13.36;68.45;99788.44;2047751;28;46913;-64
2021/12/26 01:09:45;;;;;;;;;28.60;26.60;;;;;13.37;68.63;99799.97;2046767;28;47567;-65
2021/12/26 01:10:56;;;;;;;;;28.00;27.40;;;;;13.36;68.60;99796.44;2050782;28;48296;-67
2021/12/26 01:12:00;;;;;;;;;25.40;25.20;;;;;13.36;68.46;99796.44;2053929;28;47451;-65
2021/12/26 01:13:14;;;;;;;;;24.80;23.60;;;;;13.37;68.61;99800.84;2047848;28;47368;-63
2021/12/26 01:14:24;;;;;;;;;25.80;25.00;;;;;13.38;68.33;99804.34;2053147;28;47351;-63
2021/12/26 01:15:25;;;;;;;;;26.80;26.40;;;;;13.37;68.43;99802.63;2054349;28;48066;-64
2021/12/26 01:16:28;;;;;;;;;31.00;28.40;;;;;13.35;68.48;99800.03;2054739;28;48310;-62
2021/12/26 01:17:28;;;;;;;;;25.80;24.00;;;;;13.35;68.36;99805.38;2052504;27;48302;-63
2021/12/26 01:18:37;;;;;;;;;32.50;25.25;;;;;13.35;68.51;99796.53;2048339;28;47513;-64
2021/12/26 01:19:45;;;;;;;;;28.40;27.60;;;;;13.35;68.20;99796.53;2053359;28;47113;-64
2021/12/26 01:21:47;;;;;;;;;24.40;22.60;;;;;13.34;68.35;99790.31;2054287;28;48042;-64
2021/12/26 01:22:47;;;;;;;;;28.50;28.50;;;;;13.34;68.08;99793.00;2049992;28;47928;-65
2021/12/26 01:23:52;;;;;;;;;25.75;24.50;;;;;13.34;68.19;99793.00;2059351;27;48152;-65
2021/12/26 01:24:55;;;;;;;;;23.20;23.00;;;;;13.35;68.55;99791.19;2060336;28;47291;-63
2021/12/26 01:25:57;;;;;;;;;29.00;25.60;;;;;13.34;68.42;99795.66;2053297;28;48198;-66
2021/12/26 01:26:57;;;;;;;;;20.00;19.00;;;;;13.35;68.37;99796.53;2054815;28;47366;-66
2021/12/26 01:27:57;;;;;;;;;30.50;28.50;;;;;13.34;68.23;99794.75;2048689;28;46995;-65
2021/12/26 01:28:59;;;;;;;;;28.25;26.25;;;;;13.33;68.32;99788.56;2054743;28;47560;-64
2021/12/26 01:30:00;;;;;;;;;27.80;26.80;;;;;13.33;68.24;99785.03;2054499;27;46233;-64
2021/12/26 01:31:02;;;;;;;;;25.80;25.20;;;;;13.33;68.34;99785.91;2053706;28;45497;-64
2021/12/26 01:32:05;;;;;;;;;29.60;26.00;;;;;13.32;68.38;99794.84;2053887;28;47715;-64
2021/12/26 01:33:08;;;;;;;;;28.80;27.40;;;;;13.32;68.37;99791.31;2054829;28;48230;-64
2021/12/26 01:34:09;;;;;;;;;27.20;24.60;;;;;13.31;68.42;99794.91;2053762;28;46507;-65
2021/12/26 01:35:10;;;;;;;;;27.50;26.25;;;;;13.31;68.23;99795.78;2051271;28;48001;-64
2021/12/26 01:36:10;;;;;;;;;23.25;21.50;;;;;13.32;68.64;99791.31;2054231;27;48371;-64
2021/12/26 01:37:11;;;;;;;;;29.75;28.25;;;;;13.31;68.34;99795.78;2046585;28;48011;-64
2021/12/26 01:38:14;;;;;;;;;26.00;23.75;;;;;13.33;68.50;99798.38;2050976;28;47140;-64
2021/12/26 01:39:15;;;;;;;;;24.00;21.60;;;;;13.33;68.41;99795.69;2053341;28;47338;-64
2021/12/26 01:40:16;;;;;;;;;23.20;23.00;;;;;13.32;68.29;99791.31;2053418;28;45642;-64
2021/12/26 01:41:18;;;;;;;;;29.50;25.25;;;;;13.32;68.45;99797.50;2055801;28;47687;-64
2021/12/26 01:42:19;;;;;;;;;23.60;22.80;;;;;13.32;68.62;99796.63;2055335;28;47278;-64
2021/12/26 01:43:24;;;;;;;;;27.50;26.50;;;;;13.31;68.29;99793.13;2054140;28;47099;-64
2021/12/26 01:44:25;;;;;;;;;25.60;24.20;;;;;13.32;68.25;99792.16;2054620;28;47417;-65
2021/12/26 01:45:26;;;;;;;;;28.00;26.00;;;;;13.32;68.37;99789.50;2054235;28;48119;-64
2021/12/26 01:46:27;;;;;;;;;26.00;21.75;;;;;13.32;68.23;99780.66;2050575;28;47313;-64
2021/12/26 01:47:28;;;;;;;;;26.40;23.60;;;;;13.33;68.48;99782.38;2052843;28;49586;-66
2021/12/26 01:48:29;;;;;;;;;27.00;25.50;;;;;13.32;68.65;99792.16;2053326;28;47938;-63
2021/12/26 01:49:31;;;;;;;;;25.20;23.60;;;;;13.33;68.34;99791.22;2054688;28;48342;-63
2021/12/26 01:50:32;;;;;;;;;27.20;23.60;;;;;13.33;68.34;99787.72;2053767;28;48447;-63
2021/12/26 01:51:34;;;;;;;;;25.20;25.20;;;;;13.33;68.58;99783.25;2054435;28;47554;-63
2021/12/26 01:52:34;;;;;;;;;30.50;28.50;;;;;13.32;68.55;99778.84;2049459;28;47302;-64
2021/12/26 01:53:39;;;;;;;;;26.00;25.00;;;;;13.34;67.93;99787.66;2054487;28;47408;-64
2021/12/26 01:54:46;;;;;;;;;28.20;26.40;;;;;13.34;68.47;99784.09;2053833;28;48387;-64
2021/12/26 01:55:48;;;;;;;;;25.60;23.20;;;;;13.34;68.38;99793.00;2050884;28;48262;-64
2021/12/26 01:56:49;;;;;;;;;28.80;25.20;;;;;13.34;68.50;99781.44;2054498;27;47319;-64
2021/12/26 01:57:51;;;;;;;;;29.00;26.50;;;;;13.34;68.33;99784.09;2056431;28;46782;-64
2021/12/26 01:58:52;;;;;;;;;26.20;25.80;;;;;13.34;68.36;99792.09;2054639;28;47188;-64
2021/12/26 01:59:52;;;;;;;;;32.00;26.25;;;;;13.35;68.47;99781.38;2054536;28;47322;-64
2021/12/26 02:01:05;;;;;;;;;26.25;23.75;;;;;13.35;68.38;99784.06;2050028;28;47117;-65
2021/12/26 02:02:07;;;;;;;;;31.00;26.60;;;;;13.35;68.56;99788.53;2053633;28;46068;-64
2021/12/26 02:03:08;;;;;;;;;21.80;21.60;;;;;13.35;68.62;99788.53;2054574;28;46224;-65
2021/12/26 02:04:09;;;;;;;;;28.25;28.00;;;;;13.36;68.33;99795.56;2054218;28;46700;-65
2021/12/26 02:05:10;;;;;;;;;28.25;25.25;;;;;13.35;68.36;99780.53;2054202;27;48568;-64
2021/12/26 02:06:10;;;;;;;;;22.50;21.75;;;;;13.35;68.42;99778.72;2053738;27;47827;-64
2021/12/26 02:07:12;;;;;;;;;28.75;27.25;;;;;13.34;68.30;99785.00;2046882;28;47619;-63
2021/12/26 02:08:13;;;;;;;;;26.40;23.60;;;;;13.33;68.32;99791.22;2053831;28;47705;-66
2021/12/26 02:09:13;;;;;;;;;22.00;20.25;;;;;13.33;68.11;99782.38;2054888;28;48126;-66
2021/12/26 02:10:14;;;;;;;;;28.25;25.75;;;;;13.33;68.21;99787.72;2054267;28;45166;-66
2021/12/26 02:11:16;;;;;;;;;25.00;25.00;;;;;13.34;68.47;99778.78;2049450;28;46581;-65
2021/12/26 02:12:16;;;;;;;;;26.00;23.60;;;;;13.33;68.21;99779.72;2046368;28;49167;-64
2021/12/26 02:13:17;;;;;;;;;25.75;25.50;;;;;13.33;68.31;99782.38;2046659;28;47889;-64
2021/12/26 02:14:18;;;;;;;;;28.00;28.00;;;;;13.33;68.28;99785.03;2061953;28;48261;-64
2021/12/26 02:15:19;;;;;;;;;24.60;24.00;;;;;13.32;68.23;99780.66;2054126;28;45424;-63
2021/12/26 02:16:19;;;;;;;;;26.25;26.25;;;;;13.31;68.44;99785.13;2054284;28;48199;-63
2021/12/26 02:17:19;;;;;;;;;27.00;25.25;;;;;13.32;68.15;99780.66;2053604;28;47413;-64
2021/12/26 02:18:21;;;;;;;;;28.50;25.75;;;;;13.32;68.31;99784.19;2048643;28;48280;-64
2021/12/26 02:19:21;;;;;;;;;31.00;27.20;;;;;13.31;68.31;99778.94;2054595;28;48496;-65
2021/12/26 02:20:46;;;;;;;;;22.25;22.00;;;;;13.31;68.24;99794.91;2053471;27;47913;-63
2021/12/26 02:22:59;;;;;;;;;26.00;22.80;;;;;13.31;68.46;99792.25;2050027;27;48242;-63
2021/12/26 02:24:13;;;;;;;;;24.80;22.80;;;;;13.31;68.30;99797.56;2054211;28;48371;-64
2021/12/26 02:25:30;;;;;;;;;23.60;22.40;;;;;13.30;68.33;99785.19;2053555;28;46406;-62
2021/12/26 02:27:49;;;;;;;;;27.80;24.40;;;;;13.29;68.17;99789.66;2050967;28;48692;-63
2021/12/26 02:28:50;;;;;;;;;24.25;22.25;;;;;13.28;68.43;99789.75;2051502;28;47016;-63
2021/12/26 02:29:50;;;;;;;;;25.75;22.50;;;;;13.28;68.35;99787.94;2050677;28;45346;-63
2021/12/26 02:30:53;;;;;;;;;28.50;25.50;;;;;13.27;68.33;99788.00;2053823;28;47331;-63
2021/12/26 02:31:54;;;;;;;;;25.00;23.40;;;;;13.25;68.39;99790.75;2048468;28;46960;-64
2021/12/26 02:32:58;;;;;;;;;21.25;21.25;;;;;13.24;68.37;99781.91;2051873;28;47378;-63
2021/12/26 02:33:58;;;;;;;;;26.40;24.60;;;;;13.23;68.26;99788.16;2054302;28;47262;-63
2021/12/26 02:34:59;;;;;;;;;28.25;26.00;;;;;13.22;68.37;99788.25;2054387;28;48365;-64
2021/12/26 02:36:00;;;;;;;;;25.25;23.25;;;;;13.21;68.22;99782.06;2053621;27;47185;-64
2021/12/26 02:37:01;;;;;;;;;23.40;21.40;;;;;13.22;68.32;99788.25;2046983;27;47295;-65
2021/12/26 02:38:01;;;;;;;;;23.25;23.25;;;;;13.22;68.44;99790.91;2059590;28;46826;-64
2021/12/26 02:39:03;;;;;;;;;21.00;19.75;;;;;13.22;68.43;99793.56;2053546;28;47565;-64
2021/12/26 02:40:05;;;;;;;;;24.80;24.20;;;;;13.22;68.29;99788.25;2045662;28;47277;-63
2021/12/26 02:41:06;;;;;;;;;27.00;23.60;;;;;13.22;68.44;99785.56;2055254;28;47935;-63
2021/12/26 02:42:07;;;;;;;;;26.00;22.75;;;;;13.22;68.34;99785.56;2053576;28;46818;-62
2021/12/26 02:43:08;;;;;;;;;28.50;25.50;;;;;13.21;68.25;99784.72;2047115;28;47980;-63
2021/12/26 02:44:08;;;;;;;;;22.20;22.20;;;;;13.21;68.28;99782.06;2049194;28;47314;-63
2021/12/26 02:45:09;;;;;;;;;25.75;25.25;;;;;13.20;68.44;99780.28;2054032;28;47331;-64
2021/12/26 02:46:09;;;;;;;;;23.75;23.75;;;;;13.19;68.29;99783.03;2051024;28;46758;-63
2021/12/26 02:47:10;;;;;;;;;25.25;23.50;;;;;13.20;68.57;99777.63;2055987;28;46876;-64
2021/12/26 02:48:11;;;;;;;;;30.75;29.75;;;;;13.19;68.44;99775.03;2051401;28;48097;-64
2021/12/26 02:49:12;;;;;;;;;28.00;26.40;;;;;13.19;68.55;99785.69;2050457;28;47464;-64
2021/12/26 02:50:15;;;;;;;;;23.00;19.50;;;;;13.19;68.23;99780.38;2053344;28;47004;-63
2021/12/26 02:51:16;;;;;;;;;26.20;23.00;;;;;13.17;68.31;99777.75;2053131;28;48159;-63
2021/12/26 02:52:16;;;;;;;;;27.50;23.75;;;;;13.17;68.43;99769.75;2053909;28;45534;-63
2021/12/26 02:53:20;;;;;;;;;25.25;24.00;;;;;13.15;68.31;99774.31;2045785;28;48232;-63
2021/12/26 02:54:25;;;;;;;;;27.40;25.00;;;;;13.16;68.54;99775.16;2061243;28;47400;-64
2021/12/26 02:55:26;;;;;;;;;27.60;26.20;;;;;13.16;68.35;99769.84;2060612;28;48139;-64
2021/12/26 02:56:28;;;;;;;;;25.80;24.80;;;;;13.16;68.52;99773.38;2054047;28;47501;-64
2021/12/26 02:57:29;;;;;;;;;26.40;24.60;;;;;13.18;68.56;99775.94;2052114;27;48067;-63
2021/12/26 02:58:29;;;;;;;;;29.50;29.00;;;;;13.18;68.45;99778.59;2048532;28;48222;-63
2021/12/26 02:59:31;;;;;;;;;27.50;24.25;;;;;13.18;68.49;99774.19;2054280;28;48225;-64
2021/12/26 03:00:36;;;;;;;;;24.40;22.80;;;;;13.18;68.44;99776.84;2053529;28;48213;-63
2021/12/26 03:01:36;;;;;;;;;26.20;25.20;;;;;13.18;68.52;99773.28;2053896;28;48376;-63
2021/12/26 03:02:41;;;;;;;;;32.00;27.75;;;;;13.19;68.46;99775.03;2053658;28;46547;-64
2021/12/26 03:03:42;;;;;;;;;31.00;27.80;;;;;13.19;68.81;99770.56;2053815;28;47374;-64
2021/12/26 03:04:43;;;;;;;;;23.25;23.25;;;;;13.20;68.32;99771.44;2061630;27;46005;-63
2021/12/26 03:05:45;;;;;;;;;28.50;27.00;;;;;13.20;68.33;99764.31;2054233;28;48413;-64
2021/12/26 03:06:57;;;;;;;;;25.00;23.40;;;;;13.20;68.42;99766.97;2050722;28;47876;-63
2021/12/26 03:07:57;;;;;;;;;27.20;27.20;;;;;13.18;68.22;99767.97;2048705;27;48539;-63
2021/12/26 03:09:00;;;;;;;;;27.25;24.50;;;;;13.18;68.54;99768.84;2054094;28;48355;-64
2021/12/26 03:10:00;;;;;;;;;23.00;21.60;;;;;13.19;68.50;99765.25;2049651;28;47752;-64
2021/12/26 03:11:01;;;;;;;;;20.75;20.75;;;;;13.18;68.35;99766.19;2052715;28;47102;-63
2021/12/26 03:12:02;;;;;;;;;30.50;28.00;;;;;13.19;68.47;99765.25;2045125;28;46988;-63
2021/12/26 03:13:05;;;;;;;;;26.25;25.75;;;;;13.19;68.48;99772.38;2037402;28;46826;-63
2021/12/26 03:14:06;;;;;;;;;26.60;24.80;;;;;13.18;68.54;99766.19;2045450;28;46350;-64
2021/12/26 03:15:10;;;;;;;;;24.50;24.50;;;;;13.19;68.44;99769.72;2052452;28;47457;-63
2021/12/26 03:16:10;;;;;;;;;19.80;16.40;;;;;13.19;68.48;99770.56;2053494;28;47996;-63
2021/12/26 03:17:11;;;;;;;;;28.75;23.75;;;;;13.17;68.61;99764.44;2046012;28;47967;-63
2021/12/26 03:18:12;;;;;;;;;25.00;23.75;;;;;13.18;68.64;99765.28;2060628;28;47125;-63
2021/12/26 03:19:12;;;;;;;;;23.20;22.60;;;;;13.19;68.67;99767.03;2061713;27;45940;-63
2021/12/26 03:20:16;;;;;;;;;27.50;25.00;;;;;13.18;68.62;99767.97;2052405;28;48128;-63
2021/12/26 03:21:17;;;;;;;;;25.60;23.20;;;;;13.19;68.72;99769.72;2050565;28;47400;-63
2021/12/26 03:22:18;;;;;;;;;24.50;23.50;;;;;13.19;68.54;99775.03;2053714;28;47076;-63
2021/12/26 03:23:22;;;;;;;;;27.00;23.80;;;;;13.19;68.74;99767.03;2054013;28;47518;-62
2021/12/26 03:24:22;;;;;;;;;21.80;21.40;;;;;13.17;68.60;99769.75;2053663;28;47350;-63
2021/12/26 03:25:24;;;;;;;;;30.25;25.75;;;;;13.17;68.58;99777.75;2053394;28;47398;-64
2021/12/26 03:26:25;;;;;;;;;27.00;25.20;;;;;13.17;68.63;99766.22;2048188;28;46339;-63
2021/12/26 03:27:25;;;;;;;;;24.50;23.00;;;;;13.16;68.82;99773.38;2052715;28;48476;-63
2021/12/26 03:28:28;;;;;;;;;25.25;25.25;;;;;13.15;68.61;99766.31;2046101;28;45498;-63
2021/12/26 03:29:29;;;;;;;;;25.40;25.00;;;;;13.15;68.58;99768.09;2051801;28;48086;-63
2021/12/26 03:30:31;;;;;;;;;26.00;24.25;;;;;13.14;68.70;99775.25;2051228;28;47021;-63
2021/12/26 03:31:31;;;;;;;;;28.60;26.40;;;;;13.15;68.80;99773.44;2050765;28;47304;-63
2021/12/26 03:32:32;;;;;;;;;15.50;14.50;;;;;13.15;68.69;99770.78;2047796;28;47325;-63
2021/12/26 03:33:33;;;;;;;;;25.50;24.25;;;;;13.14;68.54;99777.91;2045944;28;48354;-63
2021/12/26 03:34:34;;;;;;;;;23.40;22.20;;;;;13.15;68.63;99766.31;2053405;28;47361;-63
2021/12/26 03:35:35;;;;;;;;;24.20;24.20;;;;;13.14;68.69;99772.56;2052540;28;48077;-62
2021/12/26 03:36:36;;;;;;;;;23.80;22.40;;;;;13.14;68.60;99766.38;2052518;28;48030;-63
2021/12/26 03:37:38;;;;;;;;;22.50;21.00;;;;;13.13;68.39;99767.31;2051909;28;48610;-64
2021/12/26 03:38:39;;;;;;;;;24.40;23.00;;;;;13.13;68.61;99773.50;2053549;28;48242;-63
2021/12/26 03:39:39;;;;;;;;;25.50;23.75;;;;;13.14;68.39;99766.38;2052976;28;47637;-63
2021/12/26 03:40:41;;;;;;;;;23.75;22.25;;;;;13.13;68.71;99775.31;2050696;28;48146;-63
2021/12/26 03:41:41;;;;;;;;;27.00;25.80;;;;;13.14;68.81;99774.38;2050762;28;48053;-63
2021/12/26 03:42:42;;;;;;;;;27.25;25.50;;;;;13.13;68.79;99770.00;2055300;28;47824;-63
2021/12/26 03:43:42;;;;;;;;;29.00;25.00;;;;;13.13;68.73;99776.19;2053618;28;48671;-63
2021/12/26 03:44:43;;;;;;;;;23.25;23.25;;;;;13.13;68.80;99767.31;2054565;28;45326;-63
2021/12/26 03:45:48;;;;;;;;;26.00;24.50;;;;;13.12;68.63;99771.78;2050856;28;48302;-63
2021/12/26 03:46:49;;;;;;;;;25.00;23.80;;;;;13.13;68.72;99773.50;2050630;28;47109;-64
2021/12/26 03:47:50;;;;;;;;;26.50;23.50;;;;;13.11;68.65;99767.41;2049153;28;47201;-63
2021/12/26 03:48:50;;;;;;;;;27.80;25.80;;;;;13.11;68.68;99766.53;2049177;28;48527;-63
2021/12/26 03:49:53;;;;;;;;;25.50;21.50;;;;;13.11;68.70;99764.72;2047108;28;48061;-63
2021/12/26 03:50:54;;;;;;;;;26.60;26.40;;;;;13.11;68.73;99766.53;2052813;28;47365;-64
2021/12/26 03:51:55;;;;;;;;;25.40;23.40;;;;;13.11;68.92;99769.19;2052615;28;47507;-62
2021/12/26 03:53:01;;;;;;;;;27.00;25.25;;;;;13.11;68.77;99764.72;2049701;28;48153;-63
2021/12/26 03:54:05;;;;;;;;;25.80;23.80;;;;;13.11;68.93;99770.06;2055183;28;45210;-63
2021/12/26 03:55:06;;;;;;;;;24.80;23.60;;;;;13.12;68.73;99768.25;2047373;28;46656;-63
2021/12/26 03:56:06;;;;;;;;;25.75;25.50;;;;;13.11;68.67;99767.41;2053677;28;48145;-62
2021/12/26 03:57:07;;;;;;;;;25.25;24.00;;;;;13.10;68.64;99763.00;2055258;28;48056;-63
2021/12/26 03:58:08;;;;;;;;;30.25;28.75;;;;;13.11;68.48;99764.72;2048089;28;46343;-63
2021/12/26 03:59:09;;;;;;;;;32.00;27.40;;;;;13.12;68.74;99760.28;2052648;28;47396;-63
2021/12/26 04:00:11;;;;;;;;;25.75;24.75;;;;;13.11;68.81;99758.53;2049661;28;48461;-61
2021/12/26 04:01:12;;;;;;;;;30.80;29.40;;;;;13.12;68.76;99762.94;2054964;28;47045;-65
2021/12/26 04:02:15;;;;;;;;;25.00;25.00;;;;;13.10;68.81;99756.81;2053678;28;47654;-63
2021/12/26 04:03:16;;;;;;;;;28.00;26.00;;;;;13.10;68.81;99752.34;2048628;28;47489;-63
2021/12/26 04:04:16;;;;;;;;;30.25;27.00;;;;;13.09;68.75;99753.28;2046301;28;47112;-63
2021/12/26 04:05:17;;;;;;;;;19.50;18.50;;;;;13.09;68.97;99763.09;2053677;28;48338;-63
2021/12/26 04:06:17;;;;;;;;;25.00;24.50;;;;;13.09;68.78;99763.94;2052994;28;48158;-63
2021/12/26 04:07:18;;;;;;;;;25.25;24.75;;;;;13.10;68.76;99762.16;2046975;28;47100;-62
2021/12/26 04:08:19;;;;;;;;;30.75;29.75;;;;;13.10;68.86;99756.81;2054141;28;48668;-63
2021/12/26 04:09:19;;;;;;;;;27.00;27.00;;;;;13.09;68.99;99758.63;2054512;28;48338;-63
2021/12/26 04:10:22;;;;;;;;;28.25;27.25;;;;;13.08;68.89;99759.53;2054217;28;47823;-63
2021/12/26 04:11:23;;;;;;;;;30.40;28.20;;;;;13.08;68.89;99759.53;2053264;28;47085;-63
2021/12/26 04:12:24;;;;;;;;;25.20;19.00;;;;;13.08;68.74;99759.53;2047721;28;47343;-63
2021/12/26 04:13:24;;;;;;;;;27.00;26.25;;;;;13.08;68.80;99756.00;2055014;27;47120;-63
2021/12/26 04:14:25;;;;;;;;;30.50;26.75;;;;;13.06;68.79;99756.06;2055031;28;47336;-62
2021/12/26 04:15:26;;;;;;;;;29.75;28.00;;;;;13.06;68.86;99752.56;2054570;28;47334;-63
2021/12/26 04:16:26;;;;;;;;;21.50;16.75;;;;;13.05;68.90;99753.50;2054814;28;48277;-63
2021/12/26 04:17:26;;;;;;;;;27.75;26.50;;;;;13.05;68.91;99745.50;2053589;28;47068;-64
2021/12/26 04:18:27;;;;;;;;;29.50;26.00;;;;;13.03;68.96;99742.91;2057528;28;47238;-64
2021/12/26 04:19:27;;;;;;;;;33.50;30.00;;;;;13.04;68.97;99749.09;2062678;27;47215;-64
2021/12/26 04:20:28;;;;;;;;;28.25;26.75;;;;;13.03;68.88;99742.06;2053775;27;47293;-64
2021/12/26 04:21:29;;;;;;;;;27.80;27.20;;;;;13.03;68.93;99744.72;2062323;27;48004;-64
2021/12/26 04:22:29;;;;;;;;;27.25;24.50;;;;;13.03;69.04;99742.91;2062195;27;47413;-65
2021/12/26 04:23:30;;;;;;;;;29.50;25.75;;;;;13.03;68.78;99736.72;2055109;27;47241;-64
2021/12/26 04:24:30;;;;;;;;;30.25;28.75;;;;;13.03;68.96;99740.25;2055158;28;47958;-63
2021/12/26 04:25:30;;;;;;;;;31.25;27.75;;;;;13.03;68.90;99734.91;2053131;28;47383;-63
2021/12/26 04:26:32;;;;;;;;;25.50;25.00;;;;;13.04;69.02;99730.47;2058346;27;46986;-63
2021/12/26 04:27:33;;;;;;;;;25.20;24.60;;;;;13.03;68.89;99734.91;2055023;28;48733;-63
2021/12/26 04:28:34;;;;;;;;;26.60;24.80;;;;;13.04;69.02;99731.31;2053816;28;47551;-63
2021/12/26 04:29:34;;;;;;;;;27.75;26.00;;;;;13.06;68.99;99733.91;2054936;28;47254;-64
2021/12/26 04:30:35;;;;;;;;;24.50;24.50;;;;;13.05;68.70;99737.50;2054415;28;47168;-63
2021/12/26 04:31:36;;;;;;;;;24.25;22.00;;;;;13.05;69.00;99737.50;2051491;28;47512;-63
2021/12/26 04:32:37;;;;;;;;;25.20;24.40;;;;;13.05;68.71;99734.84;2049653;28;47256;-64
2021/12/26 04:33:38;;;;;;;;;28.00;26.20;;;;;13.06;68.94;99740.09;2054722;28;47192;-65
2021/12/26 04:34:38;;;;;;;;;29.50;23.50;;;;;13.06;68.92;99744.56;2054849;28;48263;-64
2021/12/26 04:35:39;;;;;;;;;24.75;23.00;;;;;13.07;68.93;99735.63;2054365;28;45594;-64
2021/12/26 04:36:39;;;;;;;;;30.25;28.50;;;;;13.06;68.82;99731.25;2050915;28;47188;-63
2021/12/26 04:37:40;;;;;;;;;25.00;23.00;;;;;13.06;68.84;99739.22;2049466;28;48052;-63
2021/12/26 04:38:41;;;;;;;;;26.00;24.75;;;;;13.05;68.80;99741.03;2055101;28;47348;-63
2021/12/26 04:39:42;;;;;;;;;29.60;27.80;;;;;13.05;68.87;99735.72;2054775;28;46143;-63
2021/12/26 04:40:42;;;;;;;;;24.50;24.25;;;;;13.06;68.83;99745.41;2054303;28;47411;-62
2021/12/26 04:41:45;;;;;;;;;25.25;25.25;;;;;13.06;68.70;99745.41;2050654;28;47186;-62
2021/12/26 04:42:47;;;;;;;;;23.80;23.80;;;;;13.06;68.60;99740.09;2050932;28;47679;-63
2021/12/26 04:43:47;;;;;;;;;23.60;22.80;;;;;13.06;68.81;99750.75;2046909;28;47660;-63
2021/12/26 04:44:50;;;;;;;;;22.50;22.50;;;;;13.05;68.96;99746.38;2050778;28;48511;-62
2021/12/26 04:45:50;;;;;;;;;26.40;25.00;;;;;13.07;68.80;99748.94;2052147;28;47343;-63
2021/12/26 04:46:51;;;;;;;;;33.25;28.25;;;;;13.06;69.21;99742.75;2055038;28;46962;-63
2021/12/26 04:47:52;;;;;;;;;25.25;23.00;;;;;13.06;68.79;99748.09;2050185;28;47622;-62
2021/12/26 04:48:52;;;;;;;;;28.20;25.60;;;;;13.05;68.95;99738.38;2047276;28;47021;-63